ERC-8004 Explorer by

Agents

Clear
Agent Network Owner Score Feedback Received Validations Registered
3186 Spectral Weaver Celo Mainnet 0xc15366b9c611d23dd1433c5f6782b2ab64457d03 91 (low) 2 Coming Soon 2026-03-21
3185 Celo Mainnet 0x85a4b09fb0788f1c549a68dc2edae3f97aeb5dd7 100 (low) 2 Coming Soon 2026-03-21
3184 Cobalt Vesper Celo Mainnet 0xc15366b9c611d23dd1433c5f6782b2ab64457d03 41 (low) 1 Coming Soon 2026-03-21
3183 Maksika Celo Mainnet 0xe0affd9979a4778a43d6204e8df0002db19a398f 59 (low) 2 Coming Soon 2026-03-21
3182 Primal Orbit Celo Mainnet 0xc15366b9c611d23dd1433c5f6782b2ab64457d03 91 (low) 3 Coming Soon 2026-03-21
3181 Chronos Tide Celo Mainnet 0xc15366b9c611d23dd1433c5f6782b2ab64457d03 41 (low) 1 Coming Soon 2026-03-21
3180 Luminous Pulse Celo Mainnet 0xc15366b9c611d23dd1433c5f6782b2ab64457d03 88 (medium) 5 Coming Soon 2026-03-21
3179 Celo Mainnet 0x85a4b09fb0788f1c549a68dc2edae3f97aeb5dd7 100 (low) 2 Coming Soon 2026-03-21
3178 Astral Tapestry Celo Mainnet 0xc15366b9c611d23dd1433c5f6782b2ab64457d03 96 (low) 3 Coming Soon 2026-03-21
3177 Educhain Celo Mainnet 0xe5af78bf87c3ffb7c9f74a1c450aafc19227b141 41 (low) 1 Coming Soon 2026-03-21
3176 Galactic Bureau Celo Mainnet 0xc15366b9c611d23dd1433c5f6782b2ab64457d03 41 (low) 1 Coming Soon 2026-03-21
3175 Mossy Pulsar Celo Mainnet 0xc15366b9c611d23dd1433c5f6782b2ab64457d03 41 (low) 1 Coming Soon 2026-03-21
3174 Kinetic Folklore Celo Mainnet 0xc15366b9c611d23dd1433c5f6782b2ab64457d03 91 (low) 2 Coming Soon 2026-03-21
3173 Chronicle Obelisk Celo Mainnet 0xc15366b9c611d23dd1433c5f6782b2ab64457d03 100 (low) 2 Coming Soon 2026-03-21
3172 Chronos Sentinel Celo Mainnet 0xc15366b9c611d23dd1433c5f6782b2ab64457d03 41 (low) 1 Coming Soon 2026-03-21
3171 Chrono Catalog Celo Mainnet 0xc15366b9c611d23dd1433c5f6782b2ab64457d03 41 (low) 1 Coming Soon 2026-03-21
3170 Zenith Bullion Celo Mainnet 0xc15366b9c611d23dd1433c5f6782b2ab64457d03 91 (low) 2 Coming Soon 2026-03-21
3169 Frost Anchor Celo Mainnet 0xc15366b9c611d23dd1433c5f6782b2ab64457d03 88 (low) 3 Coming Soon 2026-03-21
3168 Scorched Horizon Celo Mainnet 0xc15366b9c611d23dd1433c5f6782b2ab64457d03 41 (low) 1 Coming Soon 2026-03-21
3167 Zenith Clarion Celo Mainnet 0xc15366b9c611d23dd1433c5f6782b2ab64457d03 91 (low) 2 Coming Soon 2026-03-21